sensor_id;sensor_type;location;lat;lon;timestamp;P1;durP1;ratioP1;P2;durP2;ratioP2
16127;SDS011;8168;49.036;7.690;2023-07-29T00:02:11;1.50;;;1.40;;
16127;SDS011;8168;49.036;7.690;2023-07-29T00:04:42;2.10;;;1.30;;
16127;SDS011;8168;49.036;7.690;2023-07-29T00:07:12;1.40;;;1.30;;
16127;SDS011;8168;49.036;7.690;2023-07-29T00:09:43;1.50;;;1.40;;
16127;SDS011;8168;49.036;7.690;2023-07-29T00:12:14;2.10;;;1.77;;
16127;SDS011;8168;49.036;7.690;2023-07-29T00:14:44;4.50;;;1.60;;
16127;SDS011;8168;49.036;7.690;2023-07-29T00:17:15;1.53;;;1.43;;
16127;SDS011;8168;49.036;7.690;2023-07-29T00:19:45;1.43;;;1.27;;
16127;SDS011;8168;49.036;7.690;2023-07-29T00:22:16;1.47;;;1.37;;
16127;SDS011;8168;49.036;7.690;2023-07-29T00:24:53;1.87;;;1.40;;
16127;SDS011;8168;49.036;7.690;2023-07-29T00:27:30;1.30;;;1.20;;
16127;SDS011;8168;49.036;7.690;2023-07-29T00:30:00;3.23;;;1.57;;
16127;SDS011;8168;49.036;7.690;2023-07-29T00:32:31;1.50;;;1.40;;
16127;SDS011;8168;49.036;7.690;2023-07-29T00:35:01;6.27;;;1.60;;
16127;SDS011;8168;49.036;7.690;2023-07-29T00:37:32;2.47;;;1.27;;
16127;SDS011;8168;49.036;7.690;2023-07-29T00:40:04;1.20;;;1.10;;
16127;SDS011;8168;49.036;7.690;2023-07-29T00:42:51;2.57;;;1.20;;
16127;SDS011;8168;49.036;7.690;2023-07-29T00:45:21;1.60;;;1.50;;
16127;SDS011;8168;49.036;7.690;2023-07-29T00:47:55;1.67;;;1.57;;
16127;SDS011;8168;49.036;7.690;2023-07-29T00:50:26;1.73;;;1.63;;
16127;SDS011;8168;49.036;7.690;2023-07-29T00:52:58;1.60;;;1.50;;
16127;SDS011;8168;49.036;7.690;2023-07-29T00:55:29;1.33;;;1.23;;
16127;SDS011;8168;49.036;7.690;2023-07-29T00:58:00;1.97;;;1.57;;
16127;SDS011;8168;49.036;7.690;2023-07-29T01:00:30;2.90;;;1.50;;
16127;SDS011;8168;49.036;7.690;2023-07-29T01:03:01;2.97;;;1.40;;
16127;SDS011;8168;49.036;7.690;2023-07-29T01:05:33;3.20;;;1.53;;
16127;SDS011;8168;49.036;7.690;2023-07-29T01:08:26;4.80;;;1.23;;
16127;SDS011;8168;49.036;7.690;2023-07-29T01:11:11;2.60;;;1.40;;
16127;SDS011;8168;49.036;7.690;2023-07-29T01:16:40;1.60;;;1.50;;
16127;SDS011;8168;49.036;7.690;2023-07-29T01:22:05;1.43;;;1.33;;
16127;SDS011;8168;49.036;7.690;2023-07-29T01:24:38;1.60;;;1.50;;
16127;SDS011;8168;49.036;7.690;2023-07-29T01:27:09;6.20;;;1.57;;
16127;SDS011;8168;49.036;7.690;2023-07-29T01:29:40;1.17;;;1.13;;
16127;SDS011;8168;49.036;7.690;2023-07-29T01:32:11;1.53;;;1.27;;
16127;SDS011;8168;49.036;7.690;2023-07-29T01:34:48;1.50;;;1.27;;
16127;SDS011;8168;49.036;7.690;2023-07-29T01:37:30;3.30;;;1.40;;
16127;SDS011;8168;49.036;7.690;2023-07-29T01:40:04;1.33;;;1.23;;
16127;SDS011;8168;49.036;7.690;2023-07-29T01:42:37;1.50;;;1.23;;
16127;SDS011;8168;49.036;7.690;2023-07-29T01:45:08;1.37;;;1.27;;
16127;SDS011;8168;49.036;7.690;2023-07-29T01:47:38;1.40;;;1.30;;
16127;SDS011;8168;49.036;7.690;2023-07-29T01:50:11;3.20;;;1.47;;
16127;SDS011;8168;49.036;7.690;2023-07-29T01:52:42;1.63;;;1.30;;
16127;SDS011;8168;49.036;7.690;2023-07-29T01:55:12;1.57;;;1.40;;
16127;SDS011;8168;49.036;7.690;2023-07-29T01:57:43;2.93;;;1.40;;
16127;SDS011;8168;49.036;7.690;2023-07-29T02:00:15;2.13;;;1.27;;
16127;SDS011;8168;49.036;7.690;2023-07-29T02:02:45;1.47;;;1.30;;
16127;SDS011;8168;49.036;7.690;2023-07-29T02:05:16;1.47;;;1.30;;
16127;SDS011;8168;49.036;7.690;2023-07-29T02:07:47;2.47;;;1.60;;
16127;SDS011;8168;49.036;7.690;2023-07-29T02:10:17;2.10;;;1.50;;
16127;SDS011;8168;49.036;7.690;2023-07-29T02:12:48;1.53;;;1.37;;
16127;SDS011;8168;49.036;7.690;2023-07-29T02:15:18;1.00;;;1.00;;
16127;SDS011;8168;49.036;7.690;2023-07-29T02:17:49;1.40;;;1.30;;
16127;SDS011;8168;49.036;7.690;2023-07-29T02:20:21;1.30;;;1.20;;
16127;SDS011;8168;49.036;7.690;2023-07-29T02:22:52;5.53;;;1.47;;
16127;SDS011;8168;49.036;7.690;2023-07-29T02:25:22;1.30;;;1.20;;
16127;SDS011;8168;49.036;7.690;2023-07-29T02:27:53;2.07;;;1.37;;
16127;SDS011;8168;49.036;7.690;2023-07-29T02:30:24;2.90;;;1.50;;
16127;SDS011;8168;49.036;7.690;2023-07-29T02:32:54;0.90;;;0.90;;
16127;SDS011;8168;49.036;7.690;2023-07-29T02:35:25;1.40;;;1.30;;
16127;SDS011;8168;49.036;7.690;2023-07-29T02:37:55;1.63;;;1.40;;
16127;SDS011;8168;49.036;7.690;2023-07-29T02:40:26;1.50;;;1.20;;
16127;SDS011;8168;49.036;7.690;2023-07-29T02:42:58;2.27;;;1.57;;
16127;SDS011;8168;49.036;7.690;2023-07-29T02:45:28;1.77;;;1.47;;
16127;SDS011;8168;49.036;7.690;2023-07-29T02:47:59;1.70;;;1.30;;
16127;SDS011;8168;49.036;7.690;2023-07-29T02:50:29;2.60;;;1.20;;
16127;SDS011;8168;49.036;7.690;2023-07-29T02:53:04;2.73;;;1.17;;
16127;SDS011;8168;49.036;7.690;2023-07-29T02:55:35;1.30;;;1.20;;
16127;SDS011;8168;49.036;7.690;2023-07-29T02:58:05;3.00;;;1.40;;
16127;SDS011;8168;49.036;7.690;2023-07-29T03:00:36;1.20;;;1.10;;
16127;SDS011;8168;49.036;7.690;2023-07-29T03:03:07;1.20;;;1.10;;
16127;SDS011;8168;49.036;7.690;2023-07-29T03:05:38;3.27;;;1.47;;
16127;SDS011;8168;49.036;7.690;2023-07-29T03:08:09;1.30;;;1.20;;
16127;SDS011;8168;49.036;7.690;2023-07-29T03:10:39;1.90;;;1.30;;
16127;SDS011;8168;49.036;7.690;2023-07-29T03:13:11;1.43;;;1.30;;
16127;SDS011;8168;49.036;7.690;2023-07-29T03:15:42;1.33;;;1.23;;
16127;SDS011;8168;49.036;7.690;2023-07-29T03:18:13;1.73;;;1.30;;
16127;SDS011;8168;49.036;7.690;2023-07-29T03:20:43;1.20;;;1.10;;
16127;SDS011;8168;49.036;7.690;2023-07-29T03:23:14;1.40;;;1.27;;
16127;SDS011;8168;49.036;7.690;2023-07-29T03:25:47;1.27;;;1.20;;
16127;SDS011;8168;49.036;7.690;2023-07-29T03:28:19;2.73;;;1.33;;
16127;SDS011;8168;49.036;7.690;2023-07-29T03:30:49;1.60;;;1.50;;
16127;SDS011;8168;49.036;7.690;2023-07-29T03:33:20;4.23;;;1.50;;
16127;SDS011;8168;49.036;7.690;2023-07-29T03:35:51;3.23;;;1.60;;
16127;SDS011;8168;49.036;7.690;2023-07-29T03:38:22;2.70;;;1.37;;
16127;SDS011;8168;49.036;7.690;2023-07-29T03:40:52;2.13;;;1.70;;
16127;SDS011;8168;49.036;7.690;2023-07-29T03:43:23;1.67;;;1.30;;
16127;SDS011;8168;49.036;7.690;2023-07-29T03:45:54;5.03;;;1.70;;
16127;SDS011;8168;49.036;7.690;2023-07-29T03:48:25;1.60;;;1.50;;
16127;SDS011;8168;49.036;7.690;2023-07-29T03:50:56;1.80;;;1.53;;
16127;SDS011;8168;49.036;7.690;2023-07-29T03:53:26;4.13;;;1.70;;
16127;SDS011;8168;49.036;7.690;2023-07-29T03:55:57;3.63;;;1.67;;
16127;SDS011;8168;49.036;7.690;2023-07-29T03:58:28;2.50;;;1.37;;
16127;SDS011;8168;49.036;7.690;2023-07-29T04:00:58;2.00;;;1.53;;
16127;SDS011;8168;49.036;7.690;2023-07-29T04:03:29;1.70;;;1.60;;
16127;SDS011;8168;49.036;7.690;2023-07-29T04:05:59;1.90;;;1.70;;
16127;SDS011;8168;49.036;7.690;2023-07-29T04:08:30;2.10;;;1.53;;
16127;SDS011;8168;49.036;7.690;2023-07-29T04:11:01;1.83;;;1.60;;
16127;SDS011;8168;49.036;7.690;2023-07-29T04:13:32;3.33;;;1.50;;
16127;SDS011;8168;49.036;7.690;2023-07-29T04:16:03;1.73;;;1.63;;
16127;SDS011;8168;49.036;7.690;2023-07-29T04:18:34;3.47;;;1.70;;
16127;SDS011;8168;49.036;7.690;2023-07-29T04:21:05;4.07;;;1.50;;
16127;SDS011;8168;49.036;7.690;2023-07-29T04:23:36;2.30;;;1.70;;
16127;SDS011;8168;49.036;7.690;2023-07-29T04:26:06;1.87;;;1.67;;
16127;SDS011;8168;49.036;7.690;2023-07-29T04:28:37;1.67;;;1.57;;
16127;SDS011;8168;49.036;7.690;2023-07-29T04:31:07;1.50;;;1.23;;
16127;SDS011;8168;49.036;7.690;2023-07-29T04:33:38;2.07;;;1.80;;
16127;SDS011;8168;49.036;7.690;2023-07-29T04:36:09;1.63;;;1.53;;
16127;SDS011;8168;49.036;7.690;2023-07-29T04:38:40;2.07;;;1.40;;
16127;SDS011;8168;49.036;7.690;2023-07-29T04:41:11;1.60;;;1.47;;
16127;SDS011;8168;49.036;7.690;2023-07-29T04:43:41;1.90;;;1.60;;
16127;SDS011;8168;49.036;7.690;2023-07-29T04:46:12;2.23;;;1.77;;
16127;SDS011;8168;49.036;7.690;2023-07-29T04:48:43;1.73;;;1.57;;
16127;SDS011;8168;49.036;7.690;2023-07-29T04:51:13;2.13;;;1.67;;
16127;SDS011;8168;49.036;7.690;2023-07-29T04:53:44;3.30;;;1.60;;
16127;SDS011;8168;49.036;7.690;2023-07-29T04:56:14;1.80;;;1.40;;
16127;SDS011;8168;49.036;7.690;2023-07-29T04:58:45;1.93;;;1.47;;
16127;SDS011;8168;49.036;7.690;2023-07-29T05:01:16;1.63;;;1.53;;
16127;SDS011;8168;49.036;7.690;2023-07-29T05:03:46;1.60;;;1.40;;
16127;SDS011;8168;49.036;7.690;2023-07-29T05:06:17;1.33;;;1.20;;
16127;SDS011;8168;49.036;7.690;2023-07-29T05:08:48;1.50;;;1.40;;
16127;SDS011;8168;49.036;7.690;2023-07-29T05:11:18;2.50;;;1.80;;
16127;SDS011;8168;49.036;7.690;2023-07-29T05:13:49;1.20;;;1.10;;
16127;SDS011;8168;49.036;7.690;2023-07-29T05:16:19;1.50;;;1.40;;
16127;SDS011;8168;49.036;7.690;2023-07-29T05:18:50;1.97;;;1.30;;
16127;SDS011;8168;49.036;7.690;2023-07-29T05:21:20;1.53;;;1.20;;
16127;SDS011;8168;49.036;7.690;2023-07-29T05:23:51;1.33;;;1.23;;
16127;SDS011;8168;49.036;7.690;2023-07-29T05:26:22;1.60;;;1.50;;
16127;SDS011;8168;49.036;7.690;2023-07-29T05:28:53;1.60;;;1.13;;
16127;SDS011;8168;49.036;7.690;2023-07-29T05:31:23;1.50;;;1.17;;
16127;SDS011;8168;49.036;7.690;2023-07-29T05:33:54;1.40;;;1.30;;
16127;SDS011;8168;49.036;7.690;2023-07-29T05:36:25;1.40;;;1.30;;
16127;SDS011;8168;49.036;7.690;2023-07-29T05:38:55;1.20;;;1.10;;
16127;SDS011;8168;49.036;7.690;2023-07-29T05:41:26;1.70;;;1.20;;
16127;SDS011;8168;49.036;7.690;2023-07-29T05:43:58;2.93;;;1.40;;
16127;SDS011;8168;49.036;7.690;2023-07-29T05:46:29;1.17;;;1.10;;
16127;SDS011;8168;49.036;7.690;2023-07-29T05:49:00;1.20;;;1.10;;
16127;SDS011;8168;49.036;7.690;2023-07-29T05:51:30;1.50;;;1.40;;
16127;SDS011;8168;49.036;7.690;2023-07-29T05:54:01;1.40;;;1.30;;
16127;SDS011;8168;49.036;7.690;2023-07-29T05:56:31;1.80;;;1.23;;
16127;SDS011;8168;49.036;7.690;2023-07-29T05:59:02;1.63;;;1.40;;
16127;SDS011;8168;49.036;7.690;2023-07-29T06:01:33;4.47;;;1.40;;
16127;SDS011;8168;49.036;7.690;2023-07-29T06:04:03;1.60;;;1.20;;
16127;SDS011;8168;49.036;7.690;2023-07-29T06:06:34;1.20;;;1.10;;
16127;SDS011;8168;49.036;7.690;2023-07-29T06:09:05;2.13;;;1.10;;
16127;SDS011;8168;49.036;7.690;2023-07-29T06:11:35;1.40;;;1.30;;
16127;SDS011;8168;49.036;7.690;2023-07-29T06:14:06;1.13;;;1.03;;
16127;SDS011;8168;49.036;7.690;2023-07-29T06:16:36;1.30;;;1.20;;
16127;SDS011;8168;49.036;7.690;2023-07-29T06:19:07;2.90;;;1.30;;
16127;SDS011;8168;49.036;7.690;2023-07-29T06:21:38;1.30;;;1.20;;
16127;SDS011;8168;49.036;7.690;2023-07-29T06:24:09;3.53;;;1.10;;
16127;SDS011;8168;49.036;7.690;2023-07-29T06:26:40;1.20;;;1.10;;
16127;SDS011;8168;49.036;7.690;2023-07-29T06:29:10;1.30;;;1.20;;
16127;SDS011;8168;49.036;7.690;2023-07-29T06:31:41;1.63;;;1.20;;
16127;SDS011;8168;49.036;7.690;2023-07-29T06:34:11;1.47;;;1.37;;
16127;SDS011;8168;49.036;7.690;2023-07-29T06:36:42;1.20;;;1.10;;
16127;SDS011;8168;49.036;7.690;2023-07-29T06:39:12;1.50;;;1.37;;
16127;SDS011;8168;49.036;7.690;2023-07-29T06:41:43;1.40;;;1.30;;
16127;SDS011;8168;49.036;7.690;2023-07-29T06:44:14;1.30;;;1.20;;
16127;SDS011;8168;49.036;7.690;2023-07-29T06:46:44;2.53;;;1.20;;
16127;SDS011;8168;49.036;7.690;2023-07-29T06:49:15;1.53;;;1.43;;
16127;SDS011;8168;49.036;7.690;2023-07-29T06:51:45;1.67;;;1.10;;
16127;SDS011;8168;49.036;7.690;2023-07-29T06:54:16;1.77;;;1.40;;
16127;SDS011;8168;49.036;7.690;2023-07-29T06:56:47;1.30;;;1.20;;
16127;SDS011;8168;49.036;7.690;2023-07-29T06:59:18;3.43;;;1.20;;
16127;SDS011;8168;49.036;7.690;2023-07-29T07:01:48;1.33;;;1.23;;
16127;SDS011;8168;49.036;7.690;2023-07-29T07:04:19;1.20;;;1.10;;
16127;SDS011;8168;49.036;7.690;2023-07-29T07:06:50;1.43;;;1.10;;
16127;SDS011;8168;49.036;7.690;2023-07-29T07:09:20;1.47;;;1.30;;
16127;SDS011;8168;49.036;7.690;2023-07-29T07:11:51;1.20;;;1.10;;
16127;SDS011;8168;49.036;7.690;2023-07-29T07:14:22;1.70;;;1.23;;
16127;SDS011;8168;49.036;7.690;2023-07-29T07:16:53;1.30;;;1.20;;
16127;SDS011;8168;49.036;7.690;2023-07-29T07:19:23;1.30;;;1.20;;
16127;SDS011;8168;49.036;7.690;2023-07-29T07:21:54;1.30;;;1.20;;
16127;SDS011;8168;49.036;7.690;2023-07-29T07:24:24;2.17;;;1.07;;
16127;SDS011;8168;49.036;7.690;2023-07-29T07:26:55;1.40;;;1.30;;
16127;SDS011;8168;49.036;7.690;2023-07-29T07:29:26;1.03;;;1.03;;
16127;SDS011;8168;49.036;7.690;2023-07-29T07:31:56;2.17;;;1.23;;
16127;SDS011;8168;49.036;7.690;2023-07-29T07:34:27;1.38;;;1.25;;
16127;SDS011;8168;49.036;7.690;2023-07-29T07:36:58;1.13;;;1.13;;
16127;SDS011;8168;49.036;7.690;2023-07-29T07:39:28;1.50;;;1.40;;
16127;SDS011;8168;49.036;7.690;2023-07-29T07:41:59;1.33;;;1.23;;
16127;SDS011;8168;49.036;7.690;2023-07-29T07:44:30;2.00;;;1.80;;
16127;SDS011;8168;49.036;7.690;2023-07-29T07:47:00;1.58;;;1.48;;
16127;SDS011;8168;49.036;7.690;2023-07-29T07:49:31;1.50;;;1.40;;
16127;SDS011;8168;49.036;7.690;2023-07-29T07:52:02;1.10;;;1.10;;
16127;SDS011;8168;49.036;7.690;2023-07-29T07:54:32;1.48;;;1.38;;
16127;SDS011;8168;49.036;7.690;2023-07-29T07:57:03;1.20;;;1.15;;
16127;SDS011;8168;49.036;7.690;2023-07-29T07:59:34;1.40;;;1.30;;
16127;SDS011;8168;49.036;7.690;2023-07-29T08:02:04;1.58;;;1.35;;
16127;SDS011;8168;49.036;7.690;2023-07-29T08:04:35;1.30;;;1.17;;
16127;SDS011;8168;49.036;7.690;2023-07-29T08:07:06;1.13;;;1.00;;
16127;SDS011;8168;49.036;7.690;2023-07-29T08:09:36;2.03;;;1.30;;
16127;SDS011;8168;49.036;7.690;2023-07-29T08:12:07;2.85;;;1.85;;
16127;SDS011;8168;49.036;7.690;2023-07-29T08:14:37;2.70;;;1.40;;
16127;SDS011;8168;49.036;7.690;2023-07-29T08:17:08;1.30;;;1.20;;
16127;SDS011;8168;49.036;7.690;2023-07-29T08:19:39;2.23;;;1.40;;
16127;SDS011;8168;49.036;7.690;2023-07-29T08:22:09;1.50;;;1.40;;
16127;SDS011;8168;49.036;7.690;2023-07-29T08:24:40;2.92;;;1.70;;
16127;SDS011;8168;49.036;7.690;2023-07-29T08:27:10;1.70;;;1.60;;
16127;SDS011;8168;49.036;7.690;2023-07-29T08:29:41;2.13;;;1.93;;
16127;SDS011;8168;49.036;7.690;2023-07-29T08:32:12;2.07;;;1.70;;
16127;SDS011;8168;49.036;7.690;2023-07-29T08:34:42;3.53;;;1.52;;
16127;SDS011;8168;49.036;7.690;2023-07-29T08:37:13;1.40;;;1.30;;
16127;SDS011;8168;49.036;7.690;2023-07-29T08:39:43;1.60;;;1.50;;
16127;SDS011;8168;49.036;7.690;2023-07-29T08:42:14;2.47;;;1.50;;
16127;SDS011;8168;49.036;7.690;2023-07-29T08:44:48;4.05;;;1.60;;
16127;SDS011;8168;49.036;7.690;2023-07-29T08:47:20;2.17;;;1.40;;
16127;SDS011;8168;49.036;7.690;2023-07-29T08:49:51;2.50;;;1.20;;
16127;SDS011;8168;49.036;7.690;2023-07-29T08:52:22;1.37;;;1.27;;
16127;SDS011;8168;49.036;7.690;2023-07-29T08:54:54;1.38;;;1.27;;
16127;SDS011;8168;49.036;7.690;2023-07-29T08:57:26;1.48;;;1.38;;
16127;SDS011;8168;49.036;7.690;2023-07-29T09:00:00;1.40;;;1.23;;
16127;SDS011;8168;49.036;7.690;2023-07-29T09:02:31;6.40;;;1.50;;
16127;SDS011;8168;49.036;7.690;2023-07-29T09:05:02;3.60;;;1.73;;
16127;SDS011;8168;49.036;7.690;2023-07-29T09:07:33;1.50;;;1.40;;
16127;SDS011;8168;49.036;7.690;2023-07-29T09:10:08;1.80;;;1.70;;
16127;SDS011;8168;49.036;7.690;2023-07-29T09:12:40;1.40;;;1.30;;
16127;SDS011;8168;49.036;7.690;2023-07-29T09:15:11;1.40;;;1.30;;
16127;SDS011;8168;49.036;7.690;2023-07-29T09:17:42;1.43;;;1.33;;
16127;SDS011;8168;49.036;7.690;2023-07-29T09:20:13;1.77;;;1.30;;
16127;SDS011;8168;49.036;7.690;2023-07-29T09:22:43;1.50;;;1.40;;
16127;SDS011;8168;49.036;7.690;2023-07-29T09:25:14;1.60;;;1.50;;
16127;SDS011;8168;49.036;7.690;2023-07-29T09:27:46;2.10;;;1.60;;
16127;SDS011;8168;49.036;7.690;2023-07-29T09:30:17;1.97;;;1.87;;
16127;SDS011;8168;49.036;7.690;2023-07-29T09:32:52;2.53;;;1.50;;
16127;SDS011;8168;49.036;7.690;2023-07-29T09:35:30;1.60;;;1.50;;
16127;SDS011;8168;49.036;7.690;2023-07-29T09:38:04;2.93;;;1.30;;
16127;SDS011;8168;49.036;7.690;2023-07-29T09:40:36;1.40;;;1.30;;
16127;SDS011;8168;49.036;7.690;2023-07-29T09:43:08;5.35;;;2.03;;
16127;SDS011;8168;49.036;7.690;2023-07-29T09:45:39;1.60;;;1.50;;
16127;SDS011;8168;49.036;7.690;2023-07-29T09:48:10;1.43;;;1.33;;
16127;SDS011;8168;49.036;7.690;2023-07-29T09:50:41;1.60;;;1.50;;
16127;SDS011;8168;49.036;7.690;2023-07-29T09:53:11;2.20;;;1.40;;
16127;SDS011;8168;49.036;7.690;2023-07-29T09:55:46;1.52;;;1.40;;
16127;SDS011;8168;49.036;7.690;2023-07-29T09:58:25;1.60;;;1.50;;
16127;SDS011;8168;49.036;7.690;2023-07-29T10:00:57;1.83;;;1.73;;
16127;SDS011;8168;49.036;7.690;2023-07-29T10:03:27;1.92;;;1.30;;
16127;SDS011;8168;49.036;7.690;2023-07-29T10:06:00;1.88;;;1.45;;
16127;SDS011;8168;49.036;7.690;2023-07-29T10:08:35;1.40;;;1.30;;
16127;SDS011;8168;49.036;7.690;2023-07-29T10:11:10;1.52;;;1.30;;
16127;SDS011;8168;49.036;7.690;2023-07-29T10:13:41;1.20;;;1.10;;
16127;SDS011;8168;49.036;7.690;2023-07-29T10:16:12;2.40;;;1.58;;
16127;SDS011;8168;49.036;7.690;2023-07-29T10:18:44;1.52;;;1.30;;
16127;SDS011;8168;49.036;7.690;2023-07-29T10:21:15;1.30;;;1.25;;
16127;SDS011;8168;49.036;7.690;2023-07-29T10:23:47;1.48;;;1.38;;
16127;SDS011;8168;49.036;7.690;2023-07-29T10:26:19;1.63;;;1.52;;
16127;SDS011;8168;49.036;7.690;2023-07-29T10:28:51;3.10;;;1.77;;
16127;SDS011;8168;49.036;7.690;2023-07-29T10:31:24;1.70;;;1.60;;
16127;SDS011;8168;49.036;7.690;2023-07-29T10:33:55;3.00;;;1.50;;
16127;SDS011;8168;49.036;7.690;2023-07-29T10:36:26;1.30;;;1.20;;
16127;SDS011;8168;49.036;7.690;2023-07-29T10:38:57;2.70;;;1.40;;
16127;SDS011;8168;49.036;7.690;2023-07-29T10:49:54;1.80;;;1.70;;
16127;SDS011;8168;49.036;7.690;2023-07-29T10:55:22;2.90;;;2.67;;
16127;SDS011;8168;49.036;7.690;2023-07-29T10:58:07;2.13;;;1.93;;
16127;SDS011;8168;49.036;7.690;2023-07-29T11:00:42;3.10;;;2.13;;
16127;SDS011;8168;49.036;7.690;2023-07-29T11:03:16;2.20;;;2.00;;
16127;SDS011;8168;49.036;7.690;2023-07-29T11:05:50;1.63;;;1.52;;
16127;SDS011;8168;49.036;7.690;2023-07-29T11:08:25;1.70;;;1.60;;
16127;SDS011;8168;49.036;7.690;2023-07-29T11:11:06;1.80;;;1.70;;
16127;SDS011;8168;49.036;7.690;2023-07-29T11:13:41;1.67;;;1.58;;
16127;SDS011;8168;49.036;7.690;2023-07-29T11:16:14;1.45;;;1.35;;
16127;SDS011;8168;49.036;7.690;2023-07-29T11:18:46;1.90;;;1.70;;
16127;SDS011;8168;49.036;7.690;2023-07-29T11:21:17;1.60;;;1.50;;
16127;SDS011;8168;49.036;7.690;2023-07-29T11:23:48;2.25;;;1.25;;
16127;SDS011;8168;49.036;7.690;2023-07-29T11:26:19;3.08;;;1.58;;
16127;SDS011;8168;49.036;7.690;2023-07-29T11:28:49;1.55;;;1.45;;
16127;SDS011;8168;49.036;7.690;2023-07-29T11:31:21;3.20;;;1.50;;
16127;SDS011;8168;49.036;7.690;2023-07-29T11:33:51;1.67;;;1.55;;
16127;SDS011;8168;49.036;7.690;2023-07-29T11:36:22;2.72;;;1.48;;
16127;SDS011;8168;49.036;7.690;2023-07-29T11:38:54;1.40;;;1.30;;
16127;SDS011;8168;49.036;7.690;2023-07-29T11:41:24;2.00;;;1.83;;
16127;SDS011;8168;49.036;7.690;2023-07-29T11:43:55;1.88;;;1.40;;
16127;SDS011;8168;49.036;7.690;2023-07-29T11:46:26;1.40;;;1.30;;
16127;SDS011;8168;49.036;7.690;2023-07-29T11:48:56;1.45;;;1.35;;
16127;SDS011;8168;49.036;7.690;2023-07-29T11:51:27;1.40;;;1.30;;
16127;SDS011;8168;49.036;7.690;2023-07-29T11:53:58;1.52;;;1.42;;
16127;SDS011;8168;49.036;7.690;2023-07-29T11:56:30;1.80;;;1.70;;
16127;SDS011;8168;49.036;7.690;2023-07-29T11:59:02;1.80;;;1.60;;
16127;SDS011;8168;49.036;7.690;2023-07-29T12:01:33;1.75;;;1.60;;
16127;SDS011;8168;49.036;7.690;2023-07-29T12:04:04;3.72;;;3.50;;
16127;SDS011;8168;49.036;7.690;2023-07-29T12:06:35;2.80;;;2.60;;
16127;SDS011;8168;49.036;7.690;2023-07-29T12:09:07;2.63;;;2.42;;
16127;SDS011;8168;49.036;7.690;2023-07-29T12:11:39;2.88;;;2.30;;
16127;SDS011;8168;49.036;7.690;2023-07-29T12:14:11;2.58;;;2.22;;
16127;SDS011;8168;49.036;7.690;2023-07-29T12:16:47;2.70;;;2.50;;
16127;SDS011;8168;49.036;7.690;2023-07-29T12:19:18;1.92;;;1.83;;
16127;SDS011;8168;49.036;7.690;2023-07-29T12:21:51;1.80;;;1.70;;
16127;SDS011;8168;49.036;7.690;2023-07-29T12:24:23;2.15;;;1.95;;
16127;SDS011;8168;49.036;7.690;2023-07-29T12:26:53;3.25;;;2.15;;
16127;SDS011;8168;49.036;7.690;2023-07-29T12:29:24;4.32;;;1.90;;
16127;SDS011;8168;49.036;7.690;2023-07-29T12:32:02;2.10;;;1.90;;
16127;SDS011;8168;49.036;7.690;2023-07-29T12:34:34;2.00;;;1.80;;
16127;SDS011;8168;49.036;7.690;2023-07-29T12:37:06;1.85;;;1.75;;
16127;SDS011;8168;49.036;7.690;2023-07-29T12:39:39;2.17;;;1.98;;
16127;SDS011;8168;49.036;7.690;2023-07-29T12:42:13;2.28;;;2.08;;
16127;SDS011;8168;49.036;7.690;2023-07-29T12:44:44;5.03;;;3.05;;
16127;SDS011;8168;49.036;7.690;2023-07-29T12:47:14;2.50;;;2.28;;
16127;SDS011;8168;49.036;7.690;2023-07-29T12:49:45;1.77;;;1.67;;
16127;SDS011;8168;49.036;7.690;2023-07-29T12:52:16;1.98;;;1.88;;
16127;SDS011;8168;49.036;7.690;2023-07-29T12:54:46;1.90;;;1.80;;
16127;SDS011;8168;49.036;7.690;2023-07-29T12:57:17;1.80;;;1.67;;
16127;SDS011;8168;49.036;7.690;2023-07-29T12:59:47;2.55;;;1.55;;
16127;SDS011;8168;49.036;7.690;2023-07-29T13:02:18;1.52;;;1.42;;
16127;SDS011;8168;49.036;7.690;2023-07-29T13:04:49;1.40;;;1.30;;
16127;SDS011;8168;49.036;7.690;2023-07-29T13:07:19;1.35;;;1.25;;
16127;SDS011;8168;49.036;7.690;2023-07-29T13:09:50;1.95;;;1.50;;
16127;SDS011;8168;49.036;7.690;2023-07-29T13:12:20;1.55;;;1.30;;
16127;SDS011;8168;49.036;7.690;2023-07-29T13:14:51;1.27;;;1.17;;
16127;SDS011;8168;49.036;7.690;2023-07-29T13:17:22;1.30;;;1.20;;
16127;SDS011;8168;49.036;7.690;2023-07-29T13:19:53;2.45;;;1.00;;
16127;SDS011;8168;49.036;7.690;2023-07-29T13:22:23;1.38;;;1.27;;
16127;SDS011;8168;49.036;7.690;2023-07-29T13:24:54;1.38;;;1.27;;
16127;SDS011;8168;49.036;7.690;2023-07-29T13:27:25;1.58;;;1.48;;
16127;SDS011;8168;49.036;7.690;2023-07-29T13:29:56;1.50;;;1.40;;
16127;SDS011;8168;49.036;7.690;2023-07-29T13:32:27;1.50;;;1.40;;
16127;SDS011;8168;49.036;7.690;2023-07-29T13:34:57;1.40;;;1.30;;
16127;SDS011;8168;49.036;7.690;2023-07-29T13:37:28;1.95;;;1.50;;
16127;SDS011;8168;49.036;7.690;2023-07-29T13:39:59;1.40;;;1.25;;
16127;SDS011;8168;49.036;7.690;2023-07-29T13:42:29;1.35;;;1.25;;
16127;SDS011;8168;49.036;7.690;2023-07-29T13:45:00;1.60;;;1.50;;
16127;SDS011;8168;49.036;7.690;2023-07-29T13:47:32;2.78;;;1.52;;
16127;SDS011;8168;49.036;7.690;2023-07-29T13:50:03;1.30;;;1.20;;
16127;SDS011;8168;49.036;7.690;2023-07-29T13:52:35;1.40;;;1.30;;
16127;SDS011;8168;49.036;7.690;2023-07-29T13:55:06;1.40;;;1.30;;
16127;SDS011;8168;49.036;7.690;2023-07-29T13:57:37;1.70;;;1.27;;
16127;SDS011;8168;49.036;7.690;2023-07-29T14:00:09;1.83;;;1.63;;
16127;SDS011;8168;49.036;7.690;2023-07-29T14:02:41;1.40;;;1.30;;
16127;SDS011;8168;49.036;7.690;2023-07-29T14:05:13;2.03;;;1.45;;
16127;SDS011;8168;49.036;7.690;2023-07-29T14:07:44;1.95;;;1.30;;
16127;SDS011;8168;49.036;7.690;2023-07-29T14:10:15;1.58;;;1.38;;
16127;SDS011;8168;49.036;7.690;2023-07-29T14:12:46;2.17;;;1.30;;
16127;SDS011;8168;49.036;7.690;2023-07-29T14:15:17;1.45;;;1.35;;
16127;SDS011;8168;49.036;7.690;2023-07-29T14:17:48;2.00;;;1.45;;
16127;SDS011;8168;49.036;7.690;2023-07-29T14:20:19;1.58;;;1.48;;
16127;SDS011;8168;49.036;7.690;2023-07-29T14:22:49;1.42;;;1.33;;
16127;SDS011;8168;49.036;7.690;2023-07-29T14:25:20;2.42;;;1.50;;
16127;SDS011;8168;49.036;7.690;2023-07-29T14:27:51;1.27;;;1.17;;
16127;SDS011;8168;49.036;7.690;2023-07-29T14:30:21;1.35;;;1.25;;
16127;SDS011;8168;49.036;7.690;2023-07-29T14:32:52;1.35;;;1.25;;
16127;SDS011;8168;49.036;7.690;2023-07-29T14:35:22;1.50;;;1.38;;
16127;SDS011;8168;49.036;7.690;2023-07-29T14:37:53;1.70;;;1.60;;
16127;SDS011;8168;49.036;7.690;2023-07-29T14:40:24;1.70;;;1.60;;
16127;SDS011;8168;49.036;7.690;2023-07-29T14:42:55;1.67;;;1.58;;
16127;SDS011;8168;49.036;7.690;2023-07-29T14:45:25;1.30;;;1.20;;
16127;SDS011;8168;49.036;7.690;2023-07-29T14:47:56;1.63;;;1.42;;
16127;SDS011;8168;49.036;7.690;2023-07-29T14:50:27;1.42;;;1.33;;
16127;SDS011;8168;49.036;7.690;2023-07-29T14:52:57;1.60;;;1.50;;
16127;SDS011;8168;49.036;7.690;2023-07-29T14:55:28;1.77;;;1.67;;
16127;SDS011;8168;49.036;7.690;2023-07-29T14:57:59;1.50;;;1.40;;
16127;SDS011;8168;49.036;7.690;2023-07-29T15:00:29;1.52;;;1.40;;
16127;SDS011;8168;49.036;7.690;2023-07-29T15:03:00;1.95;;;1.60;;
16127;SDS011;8168;49.036;7.690;2023-07-29T15:05:30;1.50;;;1.40;;
16127;SDS011;8168;49.036;7.690;2023-07-29T15:08:01;1.50;;;1.40;;
16127;SDS011;8168;49.036;7.690;2023-07-29T15:10:32;2.55;;;1.42;;
16127;SDS011;8168;49.036;7.690;2023-07-29T15:13:02;1.70;;;1.60;;
16127;SDS011;8168;49.036;7.690;2023-07-29T15:15:33;2.35;;;1.40;;
16127;SDS011;8168;49.036;7.690;2023-07-29T15:18:03;1.70;;;1.60;;
16127;SDS011;8168;49.036;7.690;2023-07-29T15:20:34;4.28;;;1.52;;
16127;SDS011;8168;49.036;7.690;2023-07-29T15:23:05;1.85;;;1.50;;
16127;SDS011;8168;49.036;7.690;2023-07-29T15:25:35;1.63;;;1.52;;
16127;SDS011;8168;49.036;7.690;2023-07-29T15:28:06;1.50;;;1.40;;
16127;SDS011;8168;49.036;7.690;2023-07-29T15:30:37;1.70;;;1.60;;
16127;SDS011;8168;49.036;7.690;2023-07-29T15:33:07;1.50;;;1.35;;
16127;SDS011;8168;49.036;7.690;2023-07-29T15:35:38;1.60;;;1.50;;
16127;SDS011;8168;49.036;7.690;2023-07-29T15:38:09;1.52;;;1.40;;
16127;SDS011;8168;49.036;7.690;2023-07-29T15:40:40;1.65;;;1.52;;
16127;SDS011;8168;49.036;7.690;2023-07-29T15:43:10;1.63;;;1.52;;